Wasilla Airport
PAWS : now visible

Aeroporto :











RITROVATECI SU...

 
LOGIN :

Iscrizione | Disclaimer

   EN    FR    IT 

 









Sommario :    VFR   VFR Marginale   IFR   IFR Intensivo   IFR Molto Intensivo
Visibilità : 
Base nubi : 
>= 8 km
>= 3000ft
5 / 8 km
1000 / 3000 ft
1500m / 5 km
500 / 1000 ft
800 / 1500m
200 / 500 ft
< 800m
< 200 ft
Simboli :   Temporali  Nebbia  Neve Forte  Precipitazioni Forti  Vento > 20 kt






- Altitudine del aeroporto : 354 ft
- Codice IATA : IYS


PAWS - Wasilla

ULTIMO METAR :
  • 171456Z AUTO 07010G16KT 9SM -SN BKN026 OVC031 M08/M11 A2989 RMK AO2 SLP132 P0000 60000 T10781106 58020 FZRANO

METARs OBSOLETI :
  • 171356Z AUTO 06008KT 5SM -SN OVC020 M08/M12 A2991 RMK AO2 SLP139 P0000 T10831117 FZRANO
  • 171256Z AUTO 00000KT 6SM -SN BKN024 OVC035 M09/M13 A2995 RMK AO2 SLP149 P0000 T10891133 FZRANO

TAF N/A



MetMap, La meteo Aeronautica in un colpo d'occhio ! - Copyright ORBIFLY Dicembre 2007 - Disclaimer

ORBIFLY MET'MAP TEAM :

Programmazione e sviluppo : Alexandra Zaïnal
Concezione : Baudouin d'Aumeries
Aiuto per la programmazione : Marc-Olivier Méhu
Supporto tecnico e logistico : Manuel Goepfert
Aiuto per la traduzione : Arnaldo La Scala

Contatto : metmap@orbifly.com




FONTI E CREDITI :

   NOAA       Earth
Advisory